Wetterdaten: aktuell Montag, 30.03.2020 10:53
Datum Zeit Temp. A. Feuchte A. Luftdruck Regen Wind Richtung Richtung Taupunkt Windchill Windben
30.03.2020 10:53 -0,1 C 78 % 1026,6 hPa 0,0 l/m 4,8 km/h (1 Bft) N-NO 22 -3,5 C -0,1 C 8,0 km/h (2 Bft)
30.03.2020 09:53 -0,2 C 79 % 1026,8 hPa 0,0 l/m 6,4 km/h (2 Bft) N-NO 22 -3,4 C -0,2 C 11,3 km/h (2 Bft)
30.03.2020 08:53 -0,7 C 81 % 1026,4 hPa 0,0 l/m 6,4 km/h (2 Bft) N-NO 22 -3,5 C -0,7 C 12,9 km/h (3 Bft)
30.03.2020 07:53 -1,2 C 86 % 1025,9 hPa 0,0 l/m 8,0 km/h (2 Bft) N-NO 22 -3,2 C -2,9 C 8,0 km/h (2 Bft)
30.03.2020 06:53 -0,9 C 85 % 1025,5 hPa 0,0 l/m 6,4 km/h (2 Bft) NO 45 -3,1 C -0,9 C 12,9 km/h (3 Bft)
30.03.2020 05:53 -0,8 C 87 % 1024,9 hPa 0,0 l/m 9,7 km/h (2 Bft) NO 45 -2,7 C -4,1 C 14,5 km/h (3 Bft)
30.03.2020 04:53 -0,1 C 85 % 1024,7 hPa 0,0 l/m 8,0 km/h (2 Bft) N-NO 22 -2,3 C -1,8 C 14,5 km/h (3 Bft)
30.03.2020 03:53 0,2 C 85 % 1024,5 hPa 0,2 l/m 12,9 km/h (3 Bft) N-NO 22 -2,0 C -5,4 C 16,1 km/h (3 Bft)
30.03.2020 02:53 0,4 C 87 % 1024,4 hPa 0,0 l/m 4,8 km/h (1 Bft) N-NO 22 -1,5 C 0,4 C 6,4 km/h (2 Bft)
30.03.2020 01:53 1,1 C 87 % 1024,3 hPa 0,2 l/m 14,5 km/h (3 Bft) N-NO 22 -0,8 C -5,4 C 17,7 km/h (3 Bft)
30.03.2020 00:53 2,2 C 83 % 1024,1 hPa 0,0 l/m 4,8 km/h (1 Bft) N-NO 22 -0,4 C 2,2 C 9,7 km/h (2 Bft)
29.03.2020 23:53 3,4 C 74 % 1023,7 hPa 0,0 l/m 4,8 km/h (1 Bft) N-NO 22 -0,8 C 3,4 C 8,0 km/h (2 Bft)
29.03.2020 22:53 3,9 C 67 % 1023,2 hPa 0,0 l/m 8,0 km/h (2 Bft) N-NO 22 -1,7 C 2,4 C 12,9 km/h (3 Bft)
29.03.2020 21:53 4,4 C 68 % 1022,7 hPa 0,0 l/m 14,5 km/h (3 Bft) N-NW 337 -1,0 C -1,4 C 19,3 km/h (3 Bft)
29.03.2020 20:53 4,8 C 69 % 1022,0 hPa 0,0 l/m 11,3 km/h (2 Bft) N-NO 22 -0,4 C 1,0 C 16,1 km/h (3 Bft)
29.03.2020 19:53 5,4 C 70 % 1021,1 hPa 0,0 l/m 1,6 km/h (1 Bft) N-NO 22 0,4 C 5,4 C 3,2 km/h (1 Bft)
29.03.2020 18:53 6,4 C 67 % 1020,1 hPa 0,0 l/m 14,5 km/h (3 Bft) N-NO 22 0,7 C 1,0 C 20,9 km/h (4 Bft)
29.03.2020 17:53 7,2 C 62 % 1019,3 hPa 0,0 l/m 4,8 km/h (1 Bft) N-NW 337 0,4 C 7,2 C 6,4 km/h (2 Bft)
29.03.2020 16:53 7,6 C 62 % 1018,9 hPa 0,0 l/m 6,4 km/h (2 Bft) N-NO 22 0,8 C 7,6 C 12,9 km/h (3 Bft)
29.03.2020 15:53 8,5 C 57 % 1018,6 hPa 0,0 l/m 11,3 km/h (2 Bft) N-NO 22 0,5 C 5,2 C 16,1 km/h (3 Bft)
29.03.2020 14:53 8,7 C 55 % 1018,5 hPa 0,0 l/m 8,0 km/h (2 Bft) N 360 0,2 C 7,5 C 12,9 km/h (3 Bft)
29.03.2020 13:53 8,1 C 63 % 1018,7 hPa 0,0 l/m 3,2 km/h (1 Bft) N-NO 22 1,5 C 8,1 C 4,8 km/h (1 Bft)
29.03.2020 12:53 8,2 C 63 % 1018,8 hPa 0,0 l/m 6,4 km/h (2 Bft) NW 315 1,6 C 8,2 C 8,0 km/h (2 Bft)
29.03.2020 11:53 7,9 C 65 % 1018,9 hPa 0,0 l/m 6,4 km/h (2 Bft) N 360 1,7 C 7,9 C 11,3 km/h (2 Bft)
29.03.2020 11:00 7,4 C 67 % 1018,8 hPa 0,0 l/m 3,2 km/h (1 Bft) NW 315 1,7 C 7,4 C 4,8 km/h (1 Bft)
_ Min-Zeit 07:42 14:41 14:51 - 11:03 - - 10:38 08:06 11:03
Minimum _ -1,2 C 54 % 1018,4 hPa - 0,0 km/h (0 Bft) - - -3,7 C -9,0 C 1,6 km/h (1 Bft)
_ Max-Zeit 13:29 05:42 10:30 01:02 20:04 - - 13:39 13:28 20:08
Maximum _ 8,8 C 88 % 1026,9 hPa 0,2 l/m 22,5 km/h
N-NO (4 Bft)
- - 2,5 C 8,7 C 32,2 km/h
N-NO (5 Bft)
Durchschnitt _ 3,9 C 73 % 1022,2 hPa #0,4 l/m 8,2 km/h (2 Bft) N-NO - -0,6 C 2,0 C 12,3 km/h (3 Bft)